»·PEaware :: N282BC KBYS-KSAN

N282BC :: KBYS-KSAN

FLIGHT INFORMATION

Flight Status: Arrived
Operator: Privately registered:
United States
More flights under this callsign
Pilot: Lev B. (11997)
Aircraft: CESSNA 208 CARAVAN
(C208)
More flights by this aircraft type
Origin: KBYS Bicycle Lake AAF
United States
Destination: KSAN San Diego Intl-Lindbergh
United States
More flights between these airports :: More routes between these airports
Route: +HDF ROBNN V186 HAILE T326 MZB
File this flight plan on PilotEdge
Remarks:
Altitude:
(Current/Filed)
9,000ft
Speed:
(Current/Filed)
186kts
Departed: 14-Jan-20 03:08 PM
Arrived: 14-Jan-20 04:20 PM
Distance/Time
Traveled:
155nm/1:12
Distance/Time
To Go:
Arrived

Flight Plot

Page will automatically refresh every two minutes.

Flight plan parsing failed; only flown route is shown


Map Options




Map Legend


Flown Route
Filed Route
Departure Airport
Arrival Airport
Navaid (VOR, NDB)
Fix

Horizontal Profiles

Position Reports

Time Latitude Longitude Heading Altitude Ground
Speed
14-Jan-20 15:03 35.269630 -116.632957 286 2347ft 0kts
14-Jan-20 15:04 35.269734 -116.633377 290 2348ft 4kts
14-Jan-20 15:05 35.270602 -116.635605 312 2347ft 4kts
14-Jan-20 15:06 35.273381 -116.638842 315 2344ft 15kts
14-Jan-20 15:07 35.281606 -116.632845 48 2693ft 105kts
14-Jan-20 15:08 35.274424 -116.603801 180 3952ft 149kts
14-Jan-20 15:09 35.239792 -116.631100 209 5278ft 144kts
14-Jan-20 15:10 35.203125 -116.647384 200 6779ft 139kts
14-Jan-20 15:11 35.165797 -116.657656 200 8285ft 136kts
14-Jan-20 15:12 35.125512 -116.667604 200 9005ft 165kts
14-Jan-20 15:13 35.080971 -116.678010 200 8980ft 162kts
14-Jan-20 15:14 35.036303 -116.688375 200 8975ft 161kts
14-Jan-20 15:15 34.992124 -116.698592 200 8988ft 160kts
14-Jan-20 15:16 34.952815 -116.707473 205 9915ft 133kts
14-Jan-20 15:17 34.915751 -116.716189 205 10642ft 135kts
14-Jan-20 15:18 34.879337 -116.724614 205 11347ft 134kts
14-Jan-20 15:19 34.842825 -116.733019 205 12058ft 132kts
14-Jan-20 15:20 34.806868 -116.741282 205 12772ft 129kts
14-Jan-20 15:21 34.770647 -116.743109 164 13502ft 151kts
14-Jan-20 15:22 34.733515 -116.716801 161 14005ft 165kts
14-Jan-20 15:23 34.691951 -116.687283 160 14003ft 182kts
14-Jan-20 15:24 34.646545 -116.654871 159 14004ft 197kts
14-Jan-20 15:25 34.599019 -116.620805 158 14002ft 200kts
14-Jan-20 15:26 34.551459 -116.586683 158 14111ft 199kts
14-Jan-20 15:27 34.509240 -116.592625 228 14111ft 156kts
14-Jan-20 15:28 34.473716 -116.624407 224 14111ft 159kts
14-Jan-20 15:29 34.436863 -116.654745 223 14113ft 160kts
14-Jan-20 15:30 34.400081 -116.684596 223 14113ft 160kts
14-Jan-20 15:31 34.362726 -116.714816 223 14113ft 160kts
14-Jan-20 15:32 34.325517 -116.744877 223 14113ft 160kts
14-Jan-20 15:33 34.288343 -116.774817 222 14113ft 161kts
14-Jan-20 15:34 34.250882 -116.804644 222 14112ft 160kts
14-Jan-20 15:35 34.213435 -116.834774 222 14112ft 161kts
14-Jan-20 15:36 34.176215 -116.864742 222 14112ft 161kts
14-Jan-20 15:38 34.138911 -116.894753 222 14112ft 161kts
14-Jan-20 15:39 34.101763 -116.924608 222 14112ft 161kts
14-Jan-20 15:40 34.064294 -116.954688 222 14111ft 161kts
14-Jan-20 15:41 34.026886 -116.984688 222 14111ft 161kts
14-Jan-20 15:42 33.989199 -117.014880 222 14088ft 162kts
14-Jan-20 15:43 33.948020 -117.038459 192 13980ft 185kts
14-Jan-20 15:44 33.894929 -117.039314 190 13485ft 189kts
14-Jan-20 15:45 33.842354 -117.040197 189 12888ft 189kts
14-Jan-20 15:46 33.790089 -117.041374 190 11883ft 188kts
14-Jan-20 15:47 33.738260 -117.043464 203 11078ft 173kts
14-Jan-20 15:48 33.695422 -117.063152 210 11084ft 167kts
14-Jan-20 15:49 33.651436 -117.083003 209 11083ft 169kts
14-Jan-20 15:50 33.607008 -117.102852 209 11083ft 169kts
14-Jan-20 15:51 33.562462 -117.122713 209 11083ft 170kts
14-Jan-20 15:52 33.517903 -117.142555 209 11083ft 170kts
14-Jan-20 15:53 33.471755 -117.158058 183 11089ft 183kts
14-Jan-20 15:54 33.419860 -117.148782 178 10960ft 189kts
14-Jan-20 15:55 33.367940 -117.137878 177 10959ft 186kts
14-Jan-20 15:55 33.325015 -117.128827 177 10765ft 192kts
14-Jan-20 15:57 33.260885 -117.115314 176 9572ft 198kts
14-Jan-20 15:58 33.206424 -117.103860 175 8560ft 196kts
14-Jan-20 15:58 33.161764 -117.094547 174 7722ft 196kts
14-Jan-20 16:00 33.100028 -117.081470 174 6956ft 174kts
14-Jan-20 16:00 33.061632 -117.073387 173 6960ft 162kts
14-Jan-20 16:01 33.016984 -117.064002 174 6960ft 161kts
14-Jan-20 16:03 32.965191 -117.053121 174 6960ft 160kts
14-Jan-20 16:03 32.928446 -117.045409 174 6960ft 160kts
14-Jan-20 16:04 32.883895 -117.036062 174 6959ft 160kts
14-Jan-20 16:05 32.839347 -117.026772 174 6441ft 162kts
14-Jan-20 16:06 32.795419 -117.017864 182 5420ft 157kts
14-Jan-20 16:07 32.765143 -117.003593 103 4988ft 137kts
14-Jan-20 16:08 32.756513 -116.960851 101 4987ft 130kts
14-Jan-20 16:09 32.747541 -116.915925 102 4488ft 153kts
14-Jan-20 16:10 32.708067 -116.896208 179 4053ft 183kts
14-Jan-20 16:11 32.661523 -116.904879 242 4119ft 164kts
14-Jan-20 16:12 32.673917 -116.951862 290 4017ft 151kts
14-Jan-20 16:13 32.686629 -116.998226 285 3975ft 151kts
14-Jan-20 16:14 32.698335 -117.045381 286 2820ft 143kts
14-Jan-20 16:15 32.708263 -117.086225 285 1372ft 111kts
14-Jan-20 16:16 32.715904 -117.119695 286 1042ft 115kts
14-Jan-20 16:17 32.723622 -117.148988 289 682ft 75kts
14-Jan-20 16:18 32.729598 -117.173177 287 237ft 73kts
14-Jan-20 16:19 32.734107 -117.188045 16 19ft 0kts
14-Jan-20 16:20 32.733575 -117.185046 102 18ft 23kts
14-Jan-20 16:21 32.733075 -117.181202 85 19ft 0kts

Navigation Log

Ident Type
Flight plan parsing failed, navigation log unavailable